sensor_id;sensor_type;location;lat;lon;timestamp;P1;durP1;ratioP1;P2;durP2;ratioP2
44110;SDS011;29774;52.664;5.074;2023-02-15T00:00:22;40.30;;;26.65;;
44110;SDS011;29774;52.664;5.074;2023-02-15T00:02:47;37.38;;;25.23;;
44110;SDS011;29774;52.664;5.074;2023-02-15T00:05:13;38.92;;;25.13;;
44110;SDS011;29774;52.664;5.074;2023-02-15T00:07:39;39.67;;;26.17;;
44110;SDS011;29774;52.664;5.074;2023-02-15T00:10:04;36.70;;;24.70;;
44110;SDS011;29774;52.664;5.074;2023-02-15T00:12:31;36.90;;;24.67;;
44110;SDS011;29774;52.664;5.074;2023-02-15T00:14:56;39.22;;;27.48;;
44110;SDS011;29774;52.664;5.074;2023-02-15T00:17:22;40.10;;;26.52;;
44110;SDS011;29774;52.664;5.074;2023-02-15T00:19:47;37.10;;;25.02;;
44110;SDS011;29774;52.664;5.074;2023-02-15T00:22:13;35.95;;;24.35;;
44110;SDS011;29774;52.664;5.074;2023-02-15T00:24:39;44.85;;;23.55;;
44110;SDS011;29774;52.664;5.074;2023-02-15T00:27:04;52.75;;;21.23;;
44110;SDS011;29774;52.664;5.074;2023-02-15T00:29:30;39.72;;;22.88;;
44110;SDS011;29774;52.664;5.074;2023-02-15T00:31:56;49.40;;;20.52;;
44110;SDS011;29774;52.664;5.074;2023-02-15T00:34:23;34.60;;;22.50;;
44110;SDS011;29774;52.664;5.074;2023-02-15T00:36:51;35.83;;;21.80;;
44110;SDS011;29774;52.664;5.074;2023-02-15T00:39:17;39.00;;;23.35;;
44110;SDS011;29774;52.664;5.074;2023-02-15T00:41:44;48.22;;;24.83;;
44110;SDS011;29774;52.664;5.074;2023-02-15T00:44:10;50.83;;;27.45;;
44110;SDS011;29774;52.664;5.074;2023-02-15T00:46:36;42.25;;;27.42;;
44110;SDS011;29774;52.664;5.074;2023-02-15T00:49:02;40.30;;;26.48;;
44110;SDS011;29774;52.664;5.074;2023-02-15T00:51:28;46.35;;;27.52;;
44110;SDS011;29774;52.664;5.074;2023-02-15T00:53:54;58.65;;;26.48;;
44110;SDS011;29774;52.664;5.074;2023-02-15T00:56:19;44.63;;;28.45;;
44110;SDS011;29774;52.664;5.074;2023-02-15T00:58:45;57.35;;;25.65;;
44110;SDS011;29774;52.664;5.074;2023-02-15T01:01:12;59.97;;;25.38;;
44110;SDS011;29774;52.664;5.074;2023-02-15T01:03:40;44.15;;;24.38;;
44110;SDS011;29774;52.664;5.074;2023-02-15T01:06:09;70.70;;;24.48;;
44110;SDS011;29774;52.664;5.074;2023-02-15T01:08:35;49.60;;;23.45;;
44110;SDS011;29774;52.664;5.074;2023-02-15T01:11:05;34.33;;;23.30;;
44110;SDS011;29774;52.664;5.074;2023-02-15T01:13:32;47.03;;;23.23;;
44110;SDS011;29774;52.664;5.074;2023-02-15T01:15:59;44.97;;;19.70;;
44110;SDS011;29774;52.664;5.074;2023-02-15T01:18:25;39.22;;;21.00;;
44110;SDS011;29774;52.664;5.074;2023-02-15T01:20:51;38.40;;;19.88;;
44110;SDS011;29774;52.664;5.074;2023-02-15T01:23:17;44.10;;;21.50;;
44110;SDS011;29774;52.664;5.074;2023-02-15T01:25:42;45.72;;;21.20;;
44110;SDS011;29774;52.664;5.074;2023-02-15T01:28:08;44.47;;;20.25;;
44110;SDS011;29774;52.664;5.074;2023-02-15T01:30:34;45.80;;;18.23;;
44110;SDS011;29774;52.664;5.074;2023-02-15T01:33:00;36.65;;;17.65;;
44110;SDS011;29774;52.664;5.074;2023-02-15T01:35:26;46.67;;;18.00;;
44110;SDS011;29774;52.664;5.074;2023-02-15T01:37:52;41.90;;;18.33;;
44110;SDS011;29774;52.664;5.074;2023-02-15T01:40:19;51.33;;;18.48;;
44110;SDS011;29774;52.664;5.074;2023-02-15T01:42:45;47.45;;;17.40;;
44110;SDS011;29774;52.664;5.074;2023-02-15T01:45:25;38.08;;;18.02;;
44110;SDS011;29774;52.664;5.074;2023-02-15T01:53:03;24.58;;;14.35;;
44110;SDS011;29774;52.664;5.074;2023-02-15T01:58:29;19.80;;;14.20;;
44110;SDS011;29774;52.664;5.074;2023-02-15T02:00:57;35.95;;;16.10;;
44110;SDS011;29774;52.664;5.074;2023-02-15T02:03:35;26.58;;;14.63;;
44110;SDS011;29774;52.664;5.074;2023-02-15T02:06:13;29.45;;;14.50;;
44110;SDS011;29774;52.664;5.074;2023-02-15T02:08:39;27.70;;;15.68;;
44110;SDS011;29774;52.664;5.074;2023-02-15T02:11:10;32.92;;;15.48;;
44110;SDS011;29774;52.664;5.074;2023-02-15T02:13:39;59.65;;;16.25;;
44110;SDS011;29774;52.664;5.074;2023-02-15T02:16:14;33.42;;;16.75;;
44110;SDS011;29774;52.664;5.074;2023-02-15T02:21:51;35.75;;;16.60;;
44110;SDS011;29774;52.664;5.074;2023-02-15T02:36:24;22.65;;;15.80;;
44110;SDS011;29774;52.664;5.074;2023-02-15T02:38:46;19.58;;;14.85;;
44110;SDS011;29774;52.664;5.074;2023-02-15T02:46:33;16.83;;;13.98;;
44110;SDS011;29774;52.664;5.074;2023-02-15T02:49:09;16.83;;;13.52;;
44110;SDS011;29774;52.664;5.074;2023-02-15T02:51:34;16.52;;;13.55;;
44110;SDS011;29774;52.664;5.074;2023-02-15T02:54:00;17.35;;;13.95;;
44110;SDS011;29774;52.664;5.074;2023-02-15T02:56:32;14.55;;;12.40;;
44110;SDS011;29774;52.664;5.074;2023-02-15T02:59:22;14.93;;;13.32;;
44110;SDS011;29774;52.664;5.074;2023-02-15T03:01:55;16.92;;;13.80;;
44110;SDS011;29774;52.664;5.074;2023-02-15T03:04:29;15.85;;;13.18;;
44110;SDS011;29774;52.664;5.074;2023-02-15T03:07:09;16.85;;;13.63;;
44110;SDS011;29774;52.664;5.074;2023-02-15T03:09:41;17.15;;;14.38;;
44110;SDS011;29774;52.664;5.074;2023-02-15T03:12:11;18.35;;;14.57;;
44110;SDS011;29774;52.664;5.074;2023-02-15T03:14:52;19.25;;;14.45;;
44110;SDS011;29774;52.664;5.074;2023-02-15T03:17:30;19.92;;;15.63;;
44110;SDS011;29774;52.664;5.074;2023-02-15T03:19:59;21.60;;;15.63;;
44110;SDS011;29774;52.664;5.074;2023-02-15T03:22:40;18.42;;;15.18;;
44110;SDS011;29774;52.664;5.074;2023-02-15T03:25:17;19.88;;;14.25;;
44110;SDS011;29774;52.664;5.074;2023-02-15T03:27:47;20.25;;;15.80;;
44110;SDS011;29774;52.664;5.074;2023-02-15T03:30:17;24.65;;;16.17;;
44110;SDS011;29774;52.664;5.074;2023-02-15T03:32:45;19.80;;;15.50;;
44110;SDS011;29774;52.664;5.074;2023-02-15T03:35:12;23.42;;;15.20;;
44110;SDS011;29774;52.664;5.074;2023-02-15T03:37:40;23.45;;;15.93;;
44110;SDS011;29774;52.664;5.074;2023-02-15T03:40:26;19.17;;;14.95;;
44110;SDS011;29774;52.664;5.074;2023-02-15T03:43:19;20.40;;;15.30;;
44110;SDS011;29774;52.664;5.074;2023-02-15T03:45:51;18.52;;;14.80;;
44110;SDS011;29774;52.664;5.074;2023-02-15T03:48:24;27.73;;;16.02;;
44110;SDS011;29774;52.664;5.074;2023-02-15T03:50:55;28.55;;;19.88;;
44110;SDS011;29774;52.664;5.074;2023-02-15T03:53:45;23.33;;;17.85;;
44110;SDS011;29774;52.664;5.074;2023-02-15T03:56:13;21.23;;;15.55;;
44110;SDS011;29774;52.664;5.074;2023-02-15T03:58:39;19.42;;;15.95;;
44110;SDS011;29774;52.664;5.074;2023-02-15T04:04:25;23.02;;;17.23;;
44110;SDS011;29774;52.664;5.074;2023-02-15T04:07:02;23.63;;;17.25;;
44110;SDS011;29774;52.664;5.074;2023-02-15T04:09:30;25.83;;;18.55;;
44110;SDS011;29774;52.664;5.074;2023-02-15T04:12:14;27.40;;;16.80;;
44110;SDS011;29774;52.664;5.074;2023-02-15T04:14:40;22.48;;;17.02;;
44110;SDS011;29774;52.664;5.074;2023-02-15T04:17:24;23.83;;;16.88;;
44110;SDS011;29774;52.664;5.074;2023-02-15T04:19:49;23.65;;;16.10;;
44110;SDS011;29774;52.664;5.074;2023-02-15T04:22:33;22.35;;;16.35;;
44110;SDS011;29774;52.664;5.074;2023-02-15T04:25:17;22.15;;;14.90;;
44110;SDS011;29774;52.664;5.074;2023-02-15T04:27:53;24.40;;;16.33;;
44110;SDS011;29774;52.664;5.074;2023-02-15T04:30:20;23.17;;;16.48;;
44110;SDS011;29774;52.664;5.074;2023-02-15T04:32:47;23.80;;;16.65;;
44110;SDS011;29774;52.664;5.074;2023-02-15T04:35:13;27.33;;;18.52;;
44110;SDS011;29774;52.664;5.074;2023-02-15T04:37:40;27.55;;;17.52;;
44110;SDS011;29774;52.664;5.074;2023-02-15T04:40:07;23.95;;;17.02;;
44110;SDS011;29774;52.664;5.074;2023-02-15T04:42:34;23.13;;;16.45;;
44110;SDS011;29774;52.664;5.074;2023-02-15T04:44:59;22.70;;;15.90;;
44110;SDS011;29774;52.664;5.074;2023-02-15T04:47:25;24.58;;;15.77;;
44110;SDS011;29774;52.664;5.074;2023-02-15T04:49:51;24.20;;;16.75;;
44110;SDS011;29774;52.664;5.074;2023-02-15T04:52:16;22.90;;;16.33;;
44110;SDS011;29774;52.664;5.074;2023-02-15T04:54:42;22.95;;;16.27;;
44110;SDS011;29774;52.664;5.074;2023-02-15T04:57:09;25.13;;;16.90;;
44110;SDS011;29774;52.664;5.074;2023-02-15T04:59:34;24.08;;;16.02;;
44110;SDS011;29774;52.664;5.074;2023-02-15T05:02:00;23.17;;;16.35;;
44110;SDS011;29774;52.664;5.074;2023-02-15T05:04:26;26.73;;;17.40;;
44110;SDS011;29774;52.664;5.074;2023-02-15T05:06:51;22.85;;;16.88;;
44110;SDS011;29774;52.664;5.074;2023-02-15T05:09:17;26.45;;;17.65;;
44110;SDS011;29774;52.664;5.074;2023-02-15T05:11:42;28.52;;;17.88;;
44110;SDS011;29774;52.664;5.074;2023-02-15T05:14:08;24.50;;;16.65;;
44110;SDS011;29774;52.664;5.074;2023-02-15T05:16:34;22.95;;;16.75;;
44110;SDS011;29774;52.664;5.074;2023-02-15T05:19:00;28.88;;;17.73;;
44110;SDS011;29774;52.664;5.074;2023-02-15T05:21:25;26.00;;;17.63;;
44110;SDS011;29774;52.664;5.074;2023-02-15T05:23:51;25.67;;;17.25;;
44110;SDS011;29774;52.664;5.074;2023-02-15T05:26:18;25.23;;;17.25;;
44110;SDS011;29774;52.664;5.074;2023-02-15T05:29:04;25.85;;;18.05;;
44110;SDS011;29774;52.664;5.074;2023-02-15T05:31:30;26.65;;;17.48;;
44110;SDS011;29774;52.664;5.074;2023-02-15T05:33:56;26.10;;;17.75;;
44110;SDS011;29774;52.664;5.074;2023-02-15T05:36:22;26.58;;;17.15;;
44110;SDS011;29774;52.664;5.074;2023-02-15T05:38:48;30.17;;;17.45;;
44110;SDS011;29774;52.664;5.074;2023-02-15T05:41:13;29.17;;;17.85;;
44110;SDS011;29774;52.664;5.074;2023-02-15T05:43:39;29.48;;;18.00;;
44110;SDS011;29774;52.664;5.074;2023-02-15T05:46:05;27.38;;;16.80;;
44110;SDS011;29774;52.664;5.074;2023-02-15T05:48:31;28.63;;;18.67;;
44110;SDS011;29774;52.664;5.074;2023-02-15T05:51:01;28.13;;;18.92;;
44110;SDS011;29774;52.664;5.074;2023-02-15T05:53:29;26.02;;;17.77;;
44110;SDS011;29774;52.664;5.074;2023-02-15T05:55:55;27.20;;;18.77;;
44110;SDS011;29774;52.664;5.074;2023-02-15T05:58:26;31.17;;;19.55;;
44110;SDS011;29774;52.664;5.074;2023-02-15T06:00:53;28.23;;;18.50;;
44110;SDS011;29774;52.664;5.074;2023-02-15T06:03:18;26.83;;;17.75;;
44110;SDS011;29774;52.664;5.074;2023-02-15T06:05:44;29.08;;;17.95;;
44110;SDS011;29774;52.664;5.074;2023-02-15T06:08:10;25.77;;;18.27;;
44110;SDS011;29774;52.664;5.074;2023-02-15T06:10:35;25.20;;;17.48;;
44110;SDS011;29774;52.664;5.074;2023-02-15T06:13:01;29.75;;;18.98;;
44110;SDS011;29774;52.664;5.074;2023-02-15T06:15:27;31.65;;;19.23;;
44110;SDS011;29774;52.664;5.074;2023-02-15T06:17:52;31.30;;;18.60;;
44110;SDS011;29774;52.664;5.074;2023-02-15T06:20:18;27.38;;;17.80;;
44110;SDS011;29774;52.664;5.074;2023-02-15T06:22:43;30.67;;;18.40;;
44110;SDS011;29774;52.664;5.074;2023-02-15T06:25:09;26.08;;;17.70;;
44110;SDS011;29774;52.664;5.074;2023-02-15T06:27:36;27.45;;;18.10;;
44110;SDS011;29774;52.664;5.074;2023-02-15T06:30:03;31.58;;;18.67;;
44110;SDS011;29774;52.664;5.074;2023-02-15T06:32:30;30.23;;;18.63;;
44110;SDS011;29774;52.664;5.074;2023-02-15T06:34:56;29.52;;;18.25;;
44110;SDS011;29774;52.664;5.074;2023-02-15T06:37:22;25.75;;;17.48;;
44110;SDS011;29774;52.664;5.074;2023-02-15T06:39:48;27.20;;;17.70;;
44110;SDS011;29774;52.664;5.074;2023-02-15T06:42:13;25.40;;;17.30;;
44110;SDS011;29774;52.664;5.074;2023-02-15T06:44:39;25.70;;;18.42;;
44110;SDS011;29774;52.664;5.074;2023-02-15T06:47:04;28.13;;;19.63;;
44110;SDS011;29774;52.664;5.074;2023-02-15T06:49:30;29.52;;;18.40;;
44110;SDS011;29774;52.664;5.074;2023-02-15T06:51:56;27.92;;;17.98;;
44110;SDS011;29774;52.664;5.074;2023-02-15T06:54:21;26.83;;;18.73;;
44110;SDS011;29774;52.664;5.074;2023-02-15T06:56:47;24.48;;;16.75;;
44110;SDS011;29774;52.664;5.074;2023-02-15T06:59:12;24.40;;;16.90;;
44110;SDS011;29774;52.664;5.074;2023-02-15T07:01:38;26.95;;;17.05;;
44110;SDS011;29774;52.664;5.074;2023-02-15T07:04:04;27.90;;;18.02;;
44110;SDS011;29774;52.664;5.074;2023-02-15T07:06:32;25.30;;;17.90;;
44110;SDS011;29774;52.664;5.074;2023-02-15T07:08:59;28.33;;;17.85;;
44110;SDS011;29774;52.664;5.074;2023-02-15T07:11:25;30.63;;;18.10;;
44110;SDS011;29774;52.664;5.074;2023-02-15T07:14:09;30.23;;;18.02;;
44110;SDS011;29774;52.664;5.074;2023-02-15T07:16:35;28.30;;;18.95;;
44110;SDS011;29774;52.664;5.074;2023-02-15T07:19:00;26.92;;;17.30;;
44110;SDS011;29774;52.664;5.074;2023-02-15T07:21:27;23.35;;;17.10;;
44110;SDS011;29774;52.664;5.074;2023-02-15T07:23:55;31.20;;;17.52;;
44110;SDS011;29774;52.664;5.074;2023-02-15T07:26:22;25.92;;;18.20;;
44110;SDS011;29774;52.664;5.074;2023-02-15T07:28:47;27.92;;;17.65;;
44110;SDS011;29774;52.664;5.074;2023-02-15T07:31:13;26.30;;;17.95;;
44110;SDS011;29774;52.664;5.074;2023-02-15T07:33:38;29.73;;;18.30;;
44110;SDS011;29774;52.664;5.074;2023-02-15T07:36:04;27.23;;;17.75;;
44110;SDS011;29774;52.664;5.074;2023-02-15T07:38:34;26.88;;;17.92;;
44110;SDS011;29774;52.664;5.074;2023-02-15T07:41:01;28.50;;;17.58;;
44110;SDS011;29774;52.664;5.074;2023-02-15T07:43:32;28.00;;;17.92;;
44110;SDS011;29774;52.664;5.074;2023-02-15T07:46:03;30.08;;;19.45;;
44110;SDS011;29774;52.664;5.074;2023-02-15T07:48:32;25.67;;;18.02;;
44110;SDS011;29774;52.664;5.074;2023-02-15T07:51:01;27.45;;;17.92;;
44110;SDS011;29774;52.664;5.074;2023-02-15T07:53:28;24.88;;;17.83;;
44110;SDS011;29774;52.664;5.074;2023-02-15T07:55:57;29.60;;;18.95;;
44110;SDS011;29774;52.664;5.074;2023-02-15T07:58:28;29.83;;;17.90;;
44110;SDS011;29774;52.664;5.074;2023-02-15T08:01:13;28.27;;;18.13;;
44110;SDS011;29774;52.664;5.074;2023-02-15T08:03:39;28.27;;;18.25;;
44110;SDS011;29774;52.664;5.074;2023-02-15T08:06:05;33.10;;;18.30;;
44110;SDS011;29774;52.664;5.074;2023-02-15T08:08:33;28.00;;;18.80;;
44110;SDS011;29774;52.664;5.074;2023-02-15T08:11:05;26.45;;;17.77;;
44110;SDS011;29774;52.664;5.074;2023-02-15T08:13:51;27.58;;;18.50;;
44110;SDS011;29774;52.664;5.074;2023-02-15T08:19:30;26.33;;;18.25;;
44110;SDS011;29774;52.664;5.074;2023-02-15T08:21:59;31.05;;;18.70;;
44110;SDS011;29774;52.664;5.074;2023-02-15T08:24:28;28.63;;;18.05;;
44110;SDS011;29774;52.664;5.074;2023-02-15T08:26:55;32.20;;;18.65;;
44110;SDS011;29774;52.664;5.074;2023-02-15T08:29:22;28.00;;;18.70;;
44110;SDS011;29774;52.664;5.074;2023-02-15T08:31:52;25.42;;;17.52;;
44110;SDS011;29774;52.664;5.074;2023-02-15T08:34:19;30.45;;;19.25;;
44110;SDS011;29774;52.664;5.074;2023-02-15T08:36:45;29.35;;;19.02;;
44110;SDS011;29774;52.664;5.074;2023-02-15T08:39:11;29.27;;;19.58;;
44110;SDS011;29774;52.664;5.074;2023-02-15T08:41:38;30.25;;;18.52;;
44110;SDS011;29774;52.664;5.074;2023-02-15T08:44:05;28.10;;;19.38;;
44110;SDS011;29774;52.664;5.074;2023-02-15T08:46:33;30.45;;;19.95;;
44110;SDS011;29774;52.664;5.074;2023-02-15T08:49:01;35.15;;;19.75;;
44110;SDS011;29774;52.664;5.074;2023-02-15T08:51:28;31.42;;;20.55;;
44110;SDS011;29774;52.664;5.074;2023-02-15T08:53:56;28.60;;;20.25;;
44110;SDS011;29774;52.664;5.074;2023-02-15T08:56:24;30.67;;;20.15;;
44110;SDS011;29774;52.664;5.074;2023-02-15T08:58:55;30.88;;;19.70;;
44110;SDS011;29774;52.664;5.074;2023-02-15T09:01:25;33.65;;;21.00;;
44110;SDS011;29774;52.664;5.074;2023-02-15T09:03:59;31.90;;;20.58;;
44110;SDS011;29774;52.664;5.074;2023-02-15T09:06:27;29.98;;;19.48;;
44110;SDS011;29774;52.664;5.074;2023-02-15T09:08:53;33.58;;;20.60;;
44110;SDS011;29774;52.664;5.074;2023-02-15T09:11:21;31.33;;;20.17;;
44110;SDS011;29774;52.664;5.074;2023-02-15T09:13:59;24.48;;;14.95;;
44110;SDS011;29774;52.664;5.074;2023-02-15T09:16:27;31.38;;;21.52;;
44110;SDS011;29774;52.664;5.074;2023-02-15T09:18:55;33.08;;;21.92;;
44110;SDS011;29774;52.664;5.074;2023-02-15T09:21:23;31.17;;;21.17;;
44110;SDS011;29774;52.664;5.074;2023-02-15T09:23:51;34.55;;;21.05;;
44110;SDS011;29774;52.664;5.074;2023-02-15T09:26:21;33.40;;;21.48;;
44110;SDS011;29774;52.664;5.074;2023-02-15T09:28:50;33.17;;;20.85;;
44110;SDS011;29774;52.664;5.074;2023-02-15T09:31:18;36.28;;;21.90;;
44110;SDS011;29774;52.664;5.074;2023-02-15T09:33:46;35.35;;;21.90;;
44110;SDS011;29774;52.664;5.074;2023-02-15T09:36:23;30.95;;;21.90;;
44110;SDS011;29774;52.664;5.074;2023-02-15T09:38:57;33.28;;;20.77;;
44110;SDS011;29774;52.664;5.074;2023-02-15T09:52:09;35.08;;;21.70;;
44110;SDS011;29774;52.664;5.074;2023-02-15T09:54:41;34.70;;;21.60;;
44110;SDS011;29774;52.664;5.074;2023-02-15T10:00:16;32.65;;;20.77;;
44110;SDS011;29774;52.664;5.074;2023-02-15T10:02:55;34.15;;;23.10;;
44110;SDS011;29774;52.664;5.074;2023-02-15T10:11:51;32.97;;;22.00;;
44110;SDS011;29774;52.664;5.074;2023-02-15T10:20:24;27.65;;;18.52;;
44110;SDS011;29774;52.664;5.074;2023-02-15T10:25:42;31.90;;;22.00;;
44110;SDS011;29774;52.664;5.074;2023-02-15T10:28:19;39.55;;;23.10;;
44110;SDS011;29774;52.664;5.074;2023-02-15T10:50:17;32.47;;;18.95;;
44110;SDS011;29774;52.664;5.074;2023-02-15T11:06:34;35.95;;;22.55;;
44110;SDS011;29774;52.664;5.074;2023-02-15T11:09:08;33.90;;;22.45;;
44110;SDS011;29774;52.664;5.074;2023-02-15T11:11:38;34.88;;;22.80;;
44110;SDS011;29774;52.664;5.074;2023-02-15T11:14:17;26.67;;;18.10;;
44110;SDS011;29774;52.664;5.074;2023-02-15T11:16:57;40.33;;;25.15;;
44110;SDS011;29774;52.664;5.074;2023-02-15T11:19:32;33.10;;;20.55;;
44110;SDS011;29774;52.664;5.074;2023-02-15T11:22:02;36.22;;;23.10;;
44110;SDS011;29774;52.664;5.074;2023-02-15T11:24:30;38.22;;;24.40;;
44110;SDS011;29774;52.664;5.074;2023-02-15T11:27:04;30.08;;;20.02;;
44110;SDS011;29774;52.664;5.074;2023-02-15T11:29:45;33.65;;;23.27;;
44110;SDS011;29774;52.664;5.074;2023-02-15T11:34:59;31.48;;;21.55;;
44110;SDS011;29774;52.664;5.074;2023-02-15T11:37:53;38.38;;;24.08;;
44110;SDS011;29774;52.664;5.074;2023-02-15T11:40:25;35.47;;;22.65;;
44110;SDS011;29774;52.664;5.074;2023-02-15T11:42:56;33.65;;;23.73;;
44110;SDS011;29774;52.664;5.074;2023-02-15T11:45:28;35.70;;;23.85;;
44110;SDS011;29774;52.664;5.074;2023-02-15T11:47:56;38.45;;;24.50;;
44110;SDS011;29774;52.664;5.074;2023-02-15T11:50:24;36.50;;;24.15;;
44110;SDS011;29774;52.664;5.074;2023-02-15T11:52:52;37.40;;;23.67;;
44110;SDS011;29774;52.664;5.074;2023-02-15T11:55:20;33.25;;;21.65;;
44110;SDS011;29774;52.664;5.074;2023-02-15T11:57:53;39.78;;;25.00;;
44110;SDS011;29774;52.664;5.074;2023-02-15T12:03:00;38.63;;;24.63;;
44110;SDS011;29774;52.664;5.074;2023-02-15T12:05:40;37.78;;;25.27;;
44110;SDS011;29774;52.664;5.074;2023-02-15T12:08:12;35.90;;;23.77;;
44110;SDS011;29774;52.664;5.074;2023-02-15T12:10:56;39.90;;;26.30;;
44110;SDS011;29774;52.664;5.074;2023-02-15T12:13:25;39.45;;;24.70;;
44110;SDS011;29774;52.664;5.074;2023-02-15T12:15:52;38.78;;;24.58;;
44110;SDS011;29774;52.664;5.074;2023-02-15T12:21:02;42.22;;;24.65;;
44110;SDS011;29774;52.664;5.074;2023-02-15T12:23:32;36.35;;;23.98;;
44110;SDS011;29774;52.664;5.074;2023-02-15T12:25:58;42.47;;;23.38;;
44110;SDS011;29774;52.664;5.074;2023-02-15T12:30:56;38.85;;;24.77;;
44110;SDS011;29774;52.664;5.074;2023-02-15T12:33:25;33.90;;;22.42;;
44110;SDS011;29774;52.664;5.074;2023-02-15T12:41:38;37.13;;;23.20;;
44110;SDS011;29774;52.664;5.074;2023-02-15T12:44:31;36.70;;;24.10;;
44110;SDS011;29774;52.664;5.074;2023-02-15T12:47:02;36.28;;;22.55;;
44110;SDS011;29774;52.664;5.074;2023-02-15T12:49:41;42.38;;;23.20;;
44110;SDS011;29774;52.664;5.074;2023-02-15T12:54:47;38.17;;;24.77;;
44110;SDS011;29774;52.664;5.074;2023-02-15T12:57:25;42.17;;;25.50;;
44110;SDS011;29774;52.664;5.074;2023-02-15T13:04:51;41.85;;;25.73;;
44110;SDS011;29774;52.664;5.074;2023-02-15T13:07:17;38.60;;;23.70;;
44110;SDS011;29774;52.664;5.074;2023-02-15T13:09:43;37.60;;;23.75;;
44110;SDS011;29774;52.664;5.074;2023-02-15T13:12:18;36.25;;;22.42;;
44110;SDS011;29774;52.664;5.074;2023-02-15T13:14:45;37.72;;;24.65;;
44110;SDS011;29774;52.664;5.074;2023-02-15T13:17:15;41.95;;;25.88;;
44110;SDS011;29774;52.664;5.074;2023-02-15T13:19:52;43.05;;;25.70;;
44110;SDS011;29774;52.664;5.074;2023-02-15T13:22:22;39.17;;;25.92;;
44110;SDS011;29774;52.664;5.074;2023-02-15T13:25:13;47.40;;;25.92;;
44110;SDS011;29774;52.664;5.074;2023-02-15T13:27:43;40.05;;;25.80;;
44110;SDS011;29774;52.664;5.074;2023-02-15T13:33:00;41.47;;;26.23;;
44110;SDS011;29774;52.664;5.074;2023-02-15T13:35:29;44.65;;;26.42;;
44110;SDS011;29774;52.664;5.074;2023-02-15T13:38:30;45.20;;;26.33;;
44110;SDS011;29774;52.664;5.074;2023-02-15T13:41:04;42.17;;;24.88;;
44110;SDS011;29774;52.664;5.074;2023-02-15T13:43:40;46.13;;;25.02;;
44110;SDS011;29774;52.664;5.074;2023-02-15T13:49:00;41.88;;;24.75;;
44110;SDS011;29774;52.664;5.074;2023-02-15T13:54:27;38.97;;;22.20;;
44110;SDS011;29774;52.664;5.074;2023-02-15T14:13:58;41.35;;;26.15;;
44110;SDS011;29774;52.664;5.074;2023-02-15T14:22:12;43.10;;;26.38;;
44110;SDS011;29774;52.664;5.074;2023-02-15T14:24:55;46.05;;;27.65;;
44110;SDS011;29774;52.664;5.074;2023-02-15T14:30:34;42.53;;;26.25;;
44110;SDS011;29774;52.664;5.074;2023-02-15T14:36:01;44.65;;;26.60;;
44110;SDS011;29774;52.664;5.074;2023-02-15T14:38:37;46.92;;;28.52;;
44110;SDS011;29774;52.664;5.074;2023-02-15T14:44:08;43.35;;;26.88;;
44110;SDS011;29774;52.664;5.074;2023-02-15T14:49:17;46.17;;;28.23;;
44110;SDS011;29774;52.664;5.074;2023-02-15T14:56:43;46.25;;;26.80;;
44110;SDS011;29774;52.664;5.074;2023-02-15T14:59:19;34.50;;;21.52;;
44110;SDS011;29774;52.664;5.074;2023-02-15T15:01:59;37.78;;;22.90;;
44110;SDS011;29774;52.664;5.074;2023-02-15T15:04:38;46.60;;;28.50;;
44110;SDS011;29774;52.664;5.074;2023-02-15T15:10:04;44.25;;;27.98;;
44110;SDS011;29774;52.664;5.074;2023-02-15T15:25:46;48.97;;;29.38;;
44110;SDS011;29774;52.664;5.074;2023-02-15T15:31:02;47.70;;;30.52;;
44110;SDS011;29774;52.664;5.074;2023-02-15T15:39:30;49.65;;;30.25;;
44110;SDS011;29774;52.664;5.074;2023-02-15T15:42:12;51.08;;;30.50;;
44110;SDS011;29774;52.664;5.074;2023-02-15T15:50:15;47.15;;;30.27;;
44110;SDS011;29774;52.664;5.074;2023-02-15T15:52:52;45.78;;;29.38;;
44110;SDS011;29774;52.664;5.074;2023-02-15T15:55:22;52.63;;;31.73;;
44110;SDS011;29774;52.664;5.074;2023-02-15T15:57:50;44.28;;;31.02;;
44110;SDS011;29774;52.664;5.074;2023-02-15T16:02:56;51.13;;;31.15;;
44110;SDS011;29774;52.664;5.074;2023-02-15T16:05:21;50.63;;;31.90;;
44110;SDS011;29774;52.664;5.074;2023-02-15T16:07:48;52.53;;;31.60;;
44110;SDS011;29774;52.664;5.074;2023-02-15T16:10:21;49.30;;;31.10;;
44110;SDS011;29774;52.664;5.074;2023-02-15T16:12:49;50.47;;;31.30;;
44110;SDS011;29774;52.664;5.074;2023-02-15T16:15:17;48.05;;;30.58;;
44110;SDS011;29774;52.664;5.074;2023-02-15T16:17:56;52.05;;;32.00;;
44110;SDS011;29774;52.664;5.074;2023-02-15T16:20:24;50.97;;;30.20;;
44110;SDS011;29774;52.664;5.074;2023-02-15T16:23:09;49.20;;;30.88;;
44110;SDS011;29774;52.664;5.074;2023-02-15T16:25:55;52.30;;;29.20;;
44110;SDS011;29774;52.664;5.074;2023-02-15T16:28:27;51.28;;;31.70;;
44110;SDS011;29774;52.664;5.074;2023-02-15T16:31:13;45.65;;;30.45;;
44110;SDS011;29774;52.664;5.074;2023-02-15T16:33:41;49.35;;;29.75;;
44110;SDS011;29774;52.664;5.074;2023-02-15T16:36:20;47.50;;;29.77;;
44110;SDS011;29774;52.664;5.074;2023-02-15T16:38:59;44.55;;;29.20;;
44110;SDS011;29774;52.664;5.074;2023-02-15T16:41:32;42.67;;;28.13;;
44110;SDS011;29774;52.664;5.074;2023-02-15T16:43:59;46.85;;;29.98;;
44110;SDS011;29774;52.664;5.074;2023-02-15T16:46:31;48.40;;;30.02;;
44110;SDS011;29774;52.664;5.074;2023-02-15T16:48:59;45.70;;;29.35;;
44110;SDS011;29774;52.664;5.074;2023-02-15T16:51:29;44.55;;;28.27;;
44110;SDS011;29774;52.664;5.074;2023-02-15T16:54:00;46.22;;;28.33;;
44110;SDS011;29774;52.664;5.074;2023-02-15T16:56:30;45.17;;;28.67;;
44110;SDS011;29774;52.664;5.074;2023-02-15T16:58:57;41.03;;;26.67;;
44110;SDS011;29774;52.664;5.074;2023-02-15T17:01:25;42.85;;;27.55;;
44110;SDS011;29774;52.664;5.074;2023-02-15T17:04:16;45.90;;;28.20;;
44110;SDS011;29774;52.664;5.074;2023-02-15T17:07:04;43.85;;;28.35;;
44110;SDS011;29774;52.664;5.074;2023-02-15T17:09:32;49.50;;;27.85;;
44110;SDS011;29774;52.664;5.074;2023-02-15T17:11:58;46.58;;;28.40;;
44110;SDS011;29774;52.664;5.074;2023-02-15T17:14:27;43.40;;;27.27;;
44110;SDS011;29774;52.664;5.074;2023-02-15T17:16:58;43.42;;;29.02;;
44110;SDS011;29774;52.664;5.074;2023-02-15T17:19:31;45.20;;;26.85;;
44110;SDS011;29774;52.664;5.074;2023-02-15T17:22:19;43.70;;;29.05;;
44110;SDS011;29774;52.664;5.074;2023-02-15T17:24:50;44.90;;;26.08;;
44110;SDS011;29774;52.664;5.074;2023-02-15T17:27:24;45.55;;;27.60;;
44110;SDS011;29774;52.664;5.074;2023-02-15T17:29:56;44.40;;;26.98;;
44110;SDS011;29774;52.664;5.074;2023-02-15T17:32:25;42.90;;;27.77;;
44110;SDS011;29774;52.664;5.074;2023-02-15T17:37:30;41.92;;;26.60;;
44110;SDS011;29774;52.664;5.074;2023-02-15T17:40:10;44.85;;;26.95;;
44110;SDS011;29774;52.664;5.074;2023-02-15T17:42:49;47.17;;;28.20;;
44110;SDS011;29774;52.664;5.074;2023-02-15T17:45:15;42.28;;;27.88;;
44110;SDS011;29774;52.664;5.074;2023-02-15T17:47:41;47.80;;;28.23;;
44110;SDS011;29774;52.664;5.074;2023-02-15T17:50:07;44.13;;;25.67;;
44110;SDS011;29774;52.664;5.074;2023-02-15T17:52:40;44.85;;;28.15;;
44110;SDS011;29774;52.664;5.074;2023-02-15T17:55:12;42.88;;;28.48;;
44110;SDS011;29774;52.664;5.074;2023-02-15T17:57:58;44.15;;;27.15;;
44110;SDS011;29774;52.664;5.074;2023-02-15T18:00:25;45.40;;;28.55;;
44110;SDS011;29774;52.664;5.074;2023-02-15T18:03:09;40.50;;;26.15;;